Terminal Aerodrome Forecast
Issued by NWS

Home | Current Version | Previous Version | Text Only | Print | Product List | Glossary Off
Versions: 1 2 3 4 5 6 7 8 9 10 11 12 13 14 15 16 17 18

000
FTUS43 KABR 271132
TAFMBG
TAF
KMBG 271132Z 2712/2812 VRB06KT P6SM SCT250
     FM271600 16014KT P6SM FEW120 BKN250
      TEMPO 2800/2802 -SHRA SCT090 OVC110
     FM280200 13010KT P6SM -SHRA VCTS SCT050 BKN070CB OVC090
     FM280500 15008KT P6SM SCT100 BKN200=

USA.gov is the U.S. government's official web portal to all federal, state and local government web resources and services.